.
WxDataArchive / Data Records for 2010-10-11
2010-10-10 October 2010 2010-10-12

Data Records for Monday, 11 October 2010

Time	Temp	Chill	HIndex	Humid	Dewpt	 Wind 	HiWind	WindDir	Rain 	Barom 
-----	----	-----	------	-----	-----	------	------	-------	-----	----- 
00:00	58.9	58.9	58.9	75	51.0	0	0	---	0.00	29.867 
00:05	58.7	58.7	58.7	76	51.2	0	0	---	0.00	29.867 
00:10	58.6	58.6	58.6	76	51.1	0	0	---	0.00	29.867 
00:15	58.4	58.4	58.4	76	50.9	0	0	---	0.00	29.862 
00:20	58.3	58.3	58.3	76	50.8	0	0	---	0.00	29.862 
00:25	58.1	58.1	58.1	77	50.9	0	0	---	0.00	29.862 
00:30	58.0	58.0	58.0	77	50.8	0	0	---	0.00	29.861 
00:35	57.8	57.8	57.8	77	50.6	0	0	---	0.00	29.861 
00:40	57.6	57.6	57.6	78	50.8	0	0	---	0.00	29.861 
00:45	57.5	57.5	57.5	78	50.7	0	0	---	0.00	29.858 
00:50	57.5	57.5	57.5	78	50.7	0	1	292	0.00	29.858 
00:55	57.3	57.3	57.3	79	50.8	0	0	---	0.00	29.858 
01:00	57.2	57.2	57.2	79	50.7	0	0	---	0.00	29.855 
01:05	57.0	57.0	57.0	79	50.5	0	0	---	0.00	29.855 
01:10	56.9	56.9	56.9	79	50.5	0	0	---	0.00	29.855 
01:15	56.7	56.7	56.7	80	50.6	0	0	---	0.00	29.849 
01:20	56.7	56.7	56.7	80	50.6	0	0	---	0.00	29.849 
01:25	56.6	56.6	56.6	81	50.8	0	0	---	0.00	29.849 
01:30	56.7	56.7	56.7	81	50.9	0	1	292	0.00	29.852 
01:35	56.7	56.7	56.7	81	50.9	0	0	---	0.00	29.852 
01:40	56.9	56.9	56.9	81	51.1	0	0	---	0.00	29.852 
01:45	56.9	56.9	56.9	81	51.1	0	0	---	0.00	29.849 
01:50	56.7	56.7	56.7	81	50.9	0	0	---	0.00	29.849 
01:55	56.7	56.7	56.7	81	50.9	0	0	---	0.00	29.849 
02:00	56.6	56.6	56.6	81	50.8	0	0	---	0.00	29.851 
02:05	56.5	56.5	56.5	81	50.7	0	0	---	0.00	29.851 
02:10	56.5	56.5	56.5	82	51.1	0	0	---	0.00	29.851 
02:15	56.3	56.3	56.3	82	50.9	0	0	---	0.00	29.850 
02:20	56.2	56.2	56.2	82	50.8	0	0	---	0.00	29.850 
02:25	56.2	56.2	56.2	82	50.8	0	0	---	0.00	29.850 
02:30	56.2	56.2	56.2	82	50.8	0	0	---	0.00	29.849 
02:35	56.2	56.2	56.2	83	51.1	0	0	---	0.00	29.849 
02:40	56.2	56.2	56.2	83	51.1	0	0	---	0.00	29.849 
02:45	56.2	56.2	56.2	83	51.1	0	0	---	0.00	29.849 
02:50	56.2	56.2	56.2	83	51.1	0	0	---	0.00	29.849 
02:55	56.0	56.0	56.0	83	50.9	0	0	---	0.00	29.849 
03:00	56.0	56.0	56.0	83	50.9	0	0	---	0.00	29.846 
03:05	56.0	56.0	56.0	83	50.9	0	0	---	0.00	29.846 
03:10	55.9	55.9	55.9	83	50.8	0	0	---	0.00	29.846 
03:15	55.9	55.9	55.9	83	50.8	0	0	---	0.00	29.842 
03:20	55.9	55.9	55.9	83	50.8	0	0	---	0.00	29.842 
03:25	55.9	55.9	55.9	82	50.5	0	0	---	0.00	29.842 
03:30	55.7	55.7	55.7	82	50.3	0	0	---	0.00	29.835 
03:35	55.7	55.7	55.7	82	50.3	0	0	---	0.00	29.835 
03:40	55.7	55.7	55.7	82	50.3	0	0	---	0.00	29.835 
03:45	55.7	55.7	55.7	83	50.6	0	0	---	0.00	29.834 
03:50	55.7	55.7	55.7	82	50.3	0	0	---	0.00	29.834 
03:55	55.9	55.9	55.9	82	50.5	0	0	---	0.00	29.834 
04:00	55.9	55.9	55.9	82	50.5	0	0	---	0.00	29.830 
04:05	55.9	55.9	55.9	82	50.5	0	0	---	0.00	29.830 
04:10	55.9	55.9	55.9	82	50.5	0	0	---	0.00	29.830 
04:15	55.7	55.7	55.7	82	50.3	0	0	---	0.00	29.831 
04:20	55.7	55.7	55.7	82	50.3	0	0	---	0.00	29.831 
04:25	55.7	55.7	55.7	82	50.3	0	0	---	0.00	29.831 
04:30	55.7	55.7	55.7	82	50.3	0	0	---	0.00	29.831 
04:35	55.7	55.7	55.7	82	50.3	0	0	---	0.00	29.831 
04:40	55.6	55.6	55.6	82	50.2	0	0	---	0.00	29.831 
04:45	55.4	55.4	55.4	82	50.0	0	0	---	0.00	29.832 
04:50	55.4	55.4	55.4	82	50.0	0	0	---	0.00	29.832 
04:55	55.3	55.3	55.3	82	49.9	0	0	---	0.00	29.832 
05:00	55.3	55.3	55.3	83	50.2	0	0	---	0.00	29.829 
05:05	55.1	55.1	55.1	83	50.0	0	0	---	0.00	29.829 
05:10	55.1	55.1	55.1	83	50.0	0	0	---	0.00	29.829 
05:15	55.1	55.1	55.1	83	50.0	0	0	---	0.00	29.832 
05:20	55.0	55.0	55.0	84	50.3	0	0	---	0.00	29.832 
05:25	55.0	55.0	55.0	84	50.3	0	0	---	0.00	29.832 
05:30	55.0	55.0	55.0	84	50.3	0	0	---	0.00	29.833 
05:35	54.8	54.8	54.8	84	50.1	0	0	---	0.00	29.833 
05:40	54.8	54.8	54.8	84	50.1	0	0	---	0.00	29.833 
05:45	54.8	54.8	54.8	84	50.1	0	0	---	0.00	29.834 
05:50	54.8	54.8	54.8	84	50.1	0	0	---	0.00	29.834 
05:55	54.8	54.8	54.8	84	50.1	0	0	---	0.00	29.834 
06:00	54.8	54.8	54.8	85	50.4	0	0	---	0.00	29.834 
06:05	54.7	54.7	54.7	85	50.3	0	0	---	0.00	29.834 
06:10	54.7	54.7	54.7	85	50.3	0	0	---	0.00	29.834 
06:15	54.5	54.5	54.5	85	50.1	0	0	---	0.00	29.839 
06:20	54.4	54.4	54.4	85	50.0	0	0	---	0.00	29.839 
06:25	54.4	54.4	54.4	85	50.0	0	0	---	0.00	29.839 
06:30	54.2	54.2	54.2	85	49.8	0	0	---	0.00	29.842 
06:35	54.4	54.4	54.4	85	50.0	0	0	---	0.00	29.842 
06:40	54.4	54.4	54.4	85	50.0	0	0	---	0.00	29.842 
06:45	54.5	54.5	54.5	85	50.1	0	0	---	0.00	29.843 
06:50	54.7	54.7	54.7	85	50.3	0	0	---	0.00	29.843 
06:55	55.0	55.0	55.0	84	50.3	0	0	---	0.00	29.843 
07:00	55.3	55.3	55.3	83	50.2	0	0	---	0.00	29.840 
07:05	55.6	55.6	55.6	83	50.5	0	0	---	0.00	29.840 
07:10	55.7	55.7	55.7	82	50.3	0	0	---	0.00	29.840 
07:15	55.9	55.9	55.9	81	50.2	0	0	---	0.00	29.843 
07:20	55.9	55.9	55.9	81	50.2	0	0	---	0.00	29.843 
07:25	55.9	55.9	55.9	81	50.2	0	0	---	0.00	29.843 
07:30	55.7	55.7	55.7	81	50.0	0	0	---	0.00	29.842 
07:35	55.6	55.6	55.6	81	49.9	0	0	---	0.00	29.842 
07:40	55.4	55.4	55.4	81	49.7	0	0	---	0.00	29.842 
07:45	55.3	55.3	55.3	81	49.6	0	0	---	0.00	29.845 
07:50	55.0	55.0	55.0	81	49.3	0	0	---	0.00	29.845 
07:55	54.8	54.8	54.8	82	49.4	0	0	---	0.00	29.845 
08:00	54.7	54.7	54.7	83	49.6	0	0	---	0.00	29.849 
08:05	54.7	54.7	54.7	83	49.6	0	0	---	0.00	29.849 
08:10	54.5	54.5	54.5	83	49.4	0	0	---	0.00	29.849 
08:15	54.5	54.5	54.5	84	49.8	0	0	---	0.00	29.858 
08:20	55.0	55.0	55.0	84	50.3	0	0	---	0.00	29.858 
08:25	55.7	55.7	55.7	83	50.6	0	0	---	0.00	29.858 
08:30	56.5	56.5	56.5	81	50.7	0	0	---	0.00	29.860 
08:35	57.2	57.2	57.2	79	50.7	0	0	---	0.00	29.860 
08:40	57.8	57.8	57.8	77	50.6	0	0	---	0.00	29.860 
08:45	58.3	58.3	58.3	76	50.8	0	0	---	0.00	29.859 
08:50	58.9	58.9	58.9	74	50.6	0	0	---	0.00	29.859 
08:55	59.2	59.2	59.2	74	50.9	0	0	---	0.00	29.859 
09:00	59.5	59.5	59.5	73	50.8	0	0	---	0.00	29.858 
09:05	59.6	59.6	59.6	73	50.9	0	0	---	0.00	29.858 
09:10	59.9	59.9	59.9	72	50.8	0	0	---	0.00	29.858 
09:15	60.1	60.1	60.1	71	50.7	0	0	---	0.00	29.862 
09:20	60.4	60.4	60.4	71	50.9	0	0	---	0.00	29.862 
09:25	60.7	60.7	60.7	70	50.9	0	1	292	0.00	29.862 
09:30	61.0	61.0	61.0	69	50.8	0	1	292	0.00	29.861 
09:35	61.5	61.5	61.5	68	50.8	0	1	292	0.00	29.861 
09:40	62.0	62.0	62.0	67	50.9	0	1	292	0.00	29.861 
09:45	62.4	62.4	62.4	65	50.5	0	1	292	0.00	29.859 
09:50	62.7	62.7	62.7	65	50.8	0	0	---	0.00	29.859 
09:55	63.2	63.2	63.2	63	50.4	0	1	292	0.00	29.859 
10:00	63.5	63.5	63.5	63	50.7	0	1	292	0.00	29.857 
10:05	64.0	64.0	64.0	63	51.1	0	1	292	0.00	29.857 
10:10	64.3	64.3	64.3	61	50.6	0	2	292	0.00	29.857 
10:15	64.7	64.7	64.7	61	50.9	1	2	292	0.00	29.860 
10:20	64.8	64.8	64.8	61	51.0	0	2	292	0.00	29.860 
10:25	65.2	65.2	65.2	60	51.0	0	1	292	0.00	29.860 
10:30	65.5	65.5	65.5	60	51.2	0	1	292	0.00	29.859 
10:35	65.8	65.8	65.8	59	51.1	0	1	292	0.00	29.859 
10:40	66.1	66.1	66.1	60	51.8	0	1	292	0.00	29.859 
10:45	66.6	66.6	66.6	59	51.8	0	1	292	0.00	29.857 
10:50	67.3	67.3	67.3	58	52.0	0	1	292	0.00	29.857 
10:55	67.9	67.9	67.9	57	52.1	0	1	292	0.00	29.857 
11:00	68.8	68.8	68.8	56	52.5	0	2	292	0.00	29.855 
11:05	69.1	69.1	69.1	54	51.7	1	2	292	0.00	29.855 
11:10	69.3	69.3	69.3	55	52.4	0	2	292	0.00	29.855 
11:15	69.3	69.3	69.3	54	51.9	1	2	292	0.00	29.855 
11:20	69.6	69.6	69.6	54	52.2	1	3	292	0.00	29.855 
11:25	70.3	70.3	70.3	54	52.9	0	3	292	0.00	29.855 
11:30	71.1	71.1	71.1	53	53.1	1	2	292	0.00	29.852 
11:35	72.1	72.1	72.1	51	53.0	1	3	292	0.00	29.852 
11:40	73.0	73.0	73.0	48	52.1	1	3	292	0.00	29.852 
11:45	73.7	73.7	73.7	47	52.2	2	4	248	0.00	29.846 
11:50	74.4	74.4	74.4	46	52.3	1	3	270	0.00	29.846 
11:55	74.9	74.9	74.9	44	51.5	1	4	270	0.00	29.846 
12:00	75.1	75.1	77.7	46	52.9	1	3	270	0.00	29.842 
12:05	75.6	75.6	77.7	41	50.2	1	3	270	0.00	29.842 
12:10	76.0	76.0	78.0	44	52.5	1	3	270	0.00	29.842 
12:15	76.1	76.1	78.0	43	52.0	1	3	270	0.00	29.839 
12:20	76.7	76.7	78.2	42	51.9	1	4	270	0.00	29.839 
12:25	76.7	76.7	78.1	40	50.5	1	3	270	0.00	29.839 
12:30	76.5	76.5	78.1	41	51.0	1	3	270	0.00	29.839 
12:35	76.1	76.1	77.9	41	50.7	1	4	270	0.00	29.839 
12:40	76.1	76.1	78.0	43	52.0	1	3	270	0.00	29.839 
12:45	76.7	76.7	78.1	41	51.2	1	3	270	0.00	29.841 
12:50	76.8	76.8	78.2	41	51.3	1	3	270	0.00	29.841 
12:55	77.2	77.2	78.3	40	51.0	1	3	270	0.00	29.841 
13:00	77.6	77.6	78.5	40	51.3	1	5	292	0.00	29.837 
13:05	77.7	77.7	78.5	39	50.7	1	2	270	0.00	29.837 
13:10	78.1	78.1	78.7	38	50.4	1	3	270	0.00	29.837 
13:15	78.1	78.1	78.7	39	51.1	1	3	270	0.00	29.835 
13:20	78.3	78.3	78.8	39	51.3	1	3	270	0.00	29.835 
13:25	78.5	78.5	78.7	36	49.3	2	5	270	0.00	29.835 
13:30	78.8	78.8	79.0	37	50.3	1	3	270	0.00	29.830 
13:35	79.2	79.2	79.1	36	49.9	2	4	292	0.00	29.830 
13:40	79.8	79.8	79.4	35	49.7	1	3	270	0.00	29.830 
13:45	80.3	80.3	79.7	34	49.3	2	3	270	0.00	29.820 
13:50	81.1	81.1	80.1	33	49.2	2	5	270	0.00	29.820 
13:55	81.6	81.6	80.3	31	48.0	2	4	270	0.00	29.820 
14:00	81.6	81.6	80.3	31	48.0	2	5	270	0.00	29.816 
14:05	81.1	81.1	79.9	31	47.6	2	6	270	0.00	29.816 
14:10	80.1	80.1	79.4	32	47.6	2	5	270	0.00	29.816 
14:15	79.6	79.6	79.1	32	47.1	2	4	270	0.00	29.814 
14:20	79.4	79.4	79.0	33	47.8	2	3	270	0.00	29.814 
14:25	79.2	79.2	79.0	34	48.4	2	4	315	0.00	29.814 
14:30	79.0	79.0	79.0	35	49.0	1	3	248	0.00	29.805 
14:35	79.0	79.0	78.9	34	48.2	2	3	248	0.00	29.805 
14:40	79.0	79.0	79.0	35	49.0	0	2	270	0.00	29.805 
14:45	79.4	79.4	79.1	34	48.6	2	4	270	0.00	29.798 
14:50	79.9	79.9	79.4	34	49.0	1	4	270	0.00	29.798 
14:55	80.3	80.3	79.6	33	48.5	2	5	270	0.00	29.798 
15:00	80.1	80.1	79.5	34	49.2	1	6	248	0.00	29.792 
15:05	80.3	80.3	79.6	33	48.5	1	3	315	0.00	29.792 
15:10	80.5	80.5	79.7	33	48.7	1	4	270	0.00	29.792 
15:15	80.3	80.3	79.6	33	48.5	2	5	248	0.00	29.787 
15:20	79.9	79.9	79.4	34	49.0	1	3	292	0.00	29.787 
15:25	79.8	79.8	79.4	35	49.7	0	2	292	0.00	29.787 
15:30	79.8	79.8	79.4	35	49.7	1	4	270	0.00	29.785 
15:35	79.8	79.8	79.5	36	50.4	1	3	270	0.00	29.785 
15:40	80.1	80.1	79.6	35	50.0	2	4	270	0.00	29.785 
15:45	80.7	80.7	79.9	34	49.7	1	3	248	0.00	29.783 
15:50	81.2	81.2	80.3	34	50.1	1	3	248	0.00	29.783 
15:55	81.8	81.8	80.5	32	49.0	2	4	270	0.00	29.783 
16:00	81.6	81.6	80.4	32	48.9	1	4	270	0.00	29.777 
16:05	81.4	81.4	80.2	32	48.7	2	5	270	0.00	29.777 
16:10	81.2	81.2	80.1	32	48.5	1	4	270	0.00	29.777 
16:15	80.9	80.9	80.1	34	49.9	2	4	338	0.00	29.775 
16:20	80.9	80.9	80.0	33	49.1	2	4	292	0.00	29.775 
16:25	81.1	81.1	80.2	34	50.0	1	3	292	0.00	29.775 
16:30	81.1	81.1	80.1	33	49.2	1	3	292	0.00	29.773 
16:35	81.1	81.1	80.0	32	48.4	2	6	270	0.00	29.773 
16:40	81.1	81.1	80.0	32	48.4	1	4	270	0.00	29.773 
16:45	81.1	81.1	80.0	32	48.4	2	4	292	0.00	29.773 
16:50	81.1	81.1	80.0	32	48.4	2	6	292	0.00	29.773 
16:55	80.9	80.9	79.8	31	47.4	2	4	292	0.00	29.773 
17:00	80.9	80.9	79.8	31	47.4	3	6	270	0.00	29.772 
17:05	80.9	80.9	79.8	31	47.4	2	4	270	0.00	29.772 
17:10	80.9	80.9	79.8	31	47.4	2	5	270	0.00	29.772 
17:15	80.9	80.9	79.7	30	46.5	2	4	270	0.00	29.773 
17:20	80.9	80.9	79.7	30	46.5	1	3	270	0.00	29.773 
17:25	80.9	80.9	79.7	29	45.6	2	5	292	0.00	29.773 
17:30	81.1	81.1	79.7	28	44.9	2	6	270	0.00	29.771 
17:35	80.9	80.9	79.6	28	44.7	3	7	270	0.00	29.771 
17:40	80.9	80.9	79.6	28	44.7	2	5	270	0.00	29.771 
17:45	80.9	80.9	79.6	28	44.7	1	4	270	0.00	29.771 
17:50	80.7	80.7	79.5	28	44.5	1	4	270	0.00	29.771 
17:55	80.7	80.7	79.5	28	44.5	1	3	315	0.00	29.771 
18:00	80.5	80.5	79.3	27	43.4	1	3	315	0.00	29.773 
18:05	80.3	80.3	79.2	28	44.2	1	3	248	0.00	29.773 
18:10	80.1	80.1	79.1	28	44.0	1	3	292	0.00	29.773 
18:15	79.8	79.8	78.9	28	43.8	1	3	315	0.00	29.776 
18:20	79.4	79.4	78.7	28	43.4	0	3	315	0.00	29.776 
18:25	79.2	79.2	78.7	29	44.2	0	3	315	0.00	29.776 
18:30	78.8	78.8	78.3	27	42.0	1	3	315	0.00	29.781 
18:35	78.5	78.5	78.2	27	41.7	0	2	315	0.00	29.781 
18:40	78.3	78.3	78.1	28	42.5	0	1	315	0.00	29.781 
18:45	78.1	78.1	78.0	28	42.3	0	1	315	0.00	29.788 
18:50	77.7	77.7	77.9	29	42.9	0	1	315	0.00	29.788 
18:55	77.4	77.4	77.8	29	42.6	0	1	315	0.00	29.788 
19:00	77.0	77.0	77.7	30	43.2	0	0	---	0.00	29.790 
19:05	76.5	76.5	77.6	32	44.4	0	0	---	0.00	29.790 
19:10	75.8	75.8	77.4	33	44.6	0	0	---	0.00	29.790 
19:15	75.1	75.1	77.2	34	44.8	0	0	---	0.00	29.792 
19:20	74.2	74.2	74.2	36	45.5	0	0	---	0.00	29.792 
19:25	73.3	73.3	73.3	37	45.4	0	0	---	0.00	29.792 
19:30	72.5	72.5	72.5	39	46.1	0	0	---	0.00	29.798 
19:35	71.5	71.5	71.5	41	46.5	0	0	---	0.00	29.798 
19:40	70.8	70.8	70.8	42	46.6	0	0	---	0.00	29.798 
19:45	70.1	70.1	70.1	43	46.6	0	0	---	0.00	29.806 
19:50	69.4	69.4	69.4	45	47.1	0	0	---	0.00	29.806 
19:55	68.8	68.8	68.8	46	47.2	0	0	---	0.00	29.806 
20:00	68.1	68.1	68.1	47	47.1	0	0	---	0.00	29.812 
20:05	67.6	67.6	67.6	48	47.2	0	0	---	0.00	29.812 
20:10	67.1	67.1	67.1	49	47.3	0	0	---	0.00	29.812 
20:15	66.8	66.8	66.8	50	47.6	0	0	---	0.00	29.810 
20:20	66.3	66.3	66.3	51	47.6	0	0	---	0.00	29.810 
20:25	65.8	65.8	65.8	52	47.7	0	0	---	0.00	29.810 
20:30	65.5	65.5	65.5	53	47.9	0	0	---	0.00	29.811 
20:35	65.2	65.2	65.2	54	48.1	0	0	---	0.00	29.811 
20:40	64.8	64.8	64.8	55	48.2	0	0	---	0.00	29.811 
20:45	64.3	64.3	64.3	56	48.3	0	0	---	0.00	29.815 
20:50	64.0	64.0	64.0	57	48.5	0	0	---	0.00	29.815 
20:55	63.9	63.9	63.9	58	48.8	0	0	---	0.00	29.815 
21:00	63.5	63.5	63.5	58	48.5	0	0	---	0.00	29.816 
21:05	63.4	63.4	63.4	59	48.8	0	0	---	0.00	29.816 
21:10	63.1	63.1	63.1	60	49.0	0	0	---	0.00	29.816 
21:15	62.7	62.7	62.7	60	48.6	0	0	---	0.00	29.820 
21:20	62.4	62.4	62.4	61	48.8	0	0	---	0.00	29.820 
21:25	62.1	62.1	62.1	62	48.9	0	0	---	0.00	29.820 
21:30	62.0	62.0	62.0	63	49.3	0	0	---	0.00	29.823 
21:35	61.8	61.8	61.8	64	49.5	0	0	---	0.00	29.823 
21:40	61.6	61.6	61.6	64	49.3	0	0	---	0.00	29.823 
21:45	61.6	61.6	61.6	64	49.3	0	0	---	0.00	29.825 
21:50	61.6	61.6	61.6	64	49.3	0	0	---	0.00	29.825 
21:55	61.5	61.5	61.5	64	49.2	0	0	---	0.00	29.825 
22:00	61.3	61.3	61.3	64	49.0	0	0	---	0.00	29.827 
22:05	61.2	61.2	61.2	65	49.3	0	0	---	0.00	29.827 
22:10	61.0	61.0	61.0	65	49.1	0	0	---	0.00	29.827 
22:15	60.9	60.9	60.9	65	49.1	0	0	---	0.00	29.822 
22:20	60.5	60.5	60.5	65	48.7	0	0	---	0.00	29.822 
22:25	60.5	60.5	60.5	65	48.7	0	0	---	0.00	29.822 
22:30	60.4	60.4	60.4	66	49.0	0	0	---	0.00	29.824 
22:35	60.2	60.2	60.2	66	48.8	0	0	---	0.00	29.824 
22:40	60.1	60.1	60.1	66	48.7	0	0	---	0.00	29.824 
22:45	59.9	59.9	59.9	67	48.9	0	0	---	0.00	29.823 
22:50	59.6	59.6	59.6	67	48.6	0	0	---	0.00	29.823 
22:55	59.5	59.5	59.5	68	48.9	0	0	---	0.00	29.823 
23:00	59.3	59.3	59.3	68	48.7	0	0	---	0.00	29.824 
23:05	59.2	59.2	59.2	69	49.0	0	0	---	0.00	29.824 
23:10	58.9	58.9	58.9	69	48.7	0	0	---	0.00	29.824 
23:15	58.7	58.7	58.7	70	48.9	0	0	---	0.00	29.820 
23:20	58.6	58.6	58.6	71	49.2	0	0	---	0.00	29.820 
23:25	58.4	58.4	58.4	71	49.0	0	0	---	0.00	29.820 
23:30	58.3	58.3	58.3	72	49.3	0	0	---	0.00	29.821 
23:35	58.0	58.0	58.0	72	49.0	0	0	---	0.00	29.821 
23:40	57.8	57.8	57.8	73	49.2	0	0	---	0.00	29.821 
23:45	57.6	57.6	57.6	73	49.0	0	0	---	0.00	29.821 
23:50	57.5	57.5	57.5	73	48.9	0	0	---	0.00	29.821 
23:55	57.3	57.3	57.3	73	48.7	0	0	---	0.00	29.821 

CoCoRaHS
IN-AL-39
A2 Web Hosting
Creative Commons License
GoDaddy
search engine by freefind advanced

loaded 2018-11-17 18:16:54 • last modified 2010-11-18 10:43:29
Privacy PolicyDisclaimer
• wx.awcolley.com is powered by PmWiki v.2002016 •
• all content (unless otherwise noted) © 2018 A W Colley